sensor_id;sensor_type;location;lat;lon;timestamp;P1;durP1;ratioP1;P2;durP2;ratioP2
40907;SDS011;51055;59.436;24.778;2023-07-30T00:00:11;4.82;;;1.70;;
40907;SDS011;51055;59.436;24.778;2023-07-30T00:02:39;5.57;;;1.92;;
40907;SDS011;51055;59.436;24.778;2023-07-30T00:05:06;5.80;;;2.15;;
40907;SDS011;51055;59.436;24.778;2023-07-30T00:07:34;4.43;;;2.25;;
40907;SDS011;51055;59.436;24.778;2023-07-30T00:10:02;4.13;;;1.83;;
40907;SDS011;51055;59.436;24.778;2023-07-30T00:12:29;4.72;;;1.90;;
40907;SDS011;51055;59.436;24.778;2023-07-30T00:14:57;4.65;;;1.90;;
40907;SDS011;51055;59.436;24.778;2023-07-30T00:17:24;4.38;;;2.00;;
40907;SDS011;51055;59.436;24.778;2023-07-30T00:19:51;3.67;;;1.98;;
40907;SDS011;51055;59.436;24.778;2023-07-30T00:22:20;3.67;;;1.80;;
40907;SDS011;51055;59.436;24.778;2023-07-30T00:24:50;5.93;;;2.10;;
40907;SDS011;51055;59.436;24.778;2023-07-30T00:27:17;3.45;;;1.63;;
40907;SDS011;51055;59.436;24.778;2023-07-30T00:29:48;3.72;;;1.70;;
40907;SDS011;51055;59.436;24.778;2023-07-30T00:32:16;4.75;;;2.22;;
40907;SDS011;51055;59.436;24.778;2023-07-30T00:34:44;5.10;;;2.42;;
40907;SDS011;51055;59.436;24.778;2023-07-30T00:37:12;4.30;;;2.28;;
40907;SDS011;51055;59.436;24.778;2023-07-30T00:39:39;4.10;;;2.00;;
40907;SDS011;51055;59.436;24.778;2023-07-30T00:42:06;6.00;;;2.40;;
40907;SDS011;51055;59.436;24.778;2023-07-30T00:44:34;5.57;;;2.30;;
40907;SDS011;51055;59.436;24.778;2023-07-30T00:47:01;4.00;;;1.85;;
40907;SDS011;51055;59.436;24.778;2023-07-30T00:49:28;6.18;;;2.42;;
40907;SDS011;51055;59.436;24.778;2023-07-30T00:51:56;4.50;;;2.10;;
40907;SDS011;51055;59.436;24.778;2023-07-30T00:54:23;4.05;;;2.00;;
40907;SDS011;51055;59.436;24.778;2023-07-30T00:56:52;5.22;;;2.63;;
40907;SDS011;51055;59.436;24.778;2023-07-30T00:59:20;6.20;;;2.17;;
40907;SDS011;51055;59.436;24.778;2023-07-30T01:01:47;6.25;;;2.30;;
40907;SDS011;51055;59.436;24.778;2023-07-30T01:04:15;5.15;;;2.15;;
40907;SDS011;51055;59.436;24.778;2023-07-30T01:06:42;4.88;;;2.10;;
40907;SDS011;51055;59.436;24.778;2023-07-30T01:09:10;5.95;;;2.33;;
40907;SDS011;51055;59.436;24.778;2023-07-30T01:11:37;4.85;;;2.30;;
40907;SDS011;51055;59.436;24.778;2023-07-30T01:14:06;6.07;;;2.50;;
40907;SDS011;51055;59.436;24.778;2023-07-30T01:16:34;5.20;;;2.38;;
40907;SDS011;51055;59.436;24.778;2023-07-30T01:19:02;5.70;;;2.50;;
40907;SDS011;51055;59.436;24.778;2023-07-30T01:21:35;3.60;;;2.05;;
40907;SDS011;51055;59.436;24.778;2023-07-30T01:24:03;4.43;;;2.20;;
40907;SDS011;51055;59.436;24.778;2023-07-30T01:29:04;5.80;;;2.47;;
40907;SDS011;51055;59.436;24.778;2023-07-30T01:31:33;5.18;;;2.33;;
40907;SDS011;51055;59.436;24.778;2023-07-30T01:34:02;4.95;;;2.20;;
40907;SDS011;51055;59.436;24.778;2023-07-30T01:36:30;5.53;;;2.20;;
40907;SDS011;51055;59.436;24.778;2023-07-30T01:38:59;4.30;;;2.00;;
40907;SDS011;51055;59.436;24.778;2023-07-30T01:41:27;4.57;;;2.15;;
40907;SDS011;51055;59.436;24.778;2023-07-30T01:43:54;3.97;;;2.10;;
40907;SDS011;51055;59.436;24.778;2023-07-30T01:46:21;6.35;;;2.53;;
40907;SDS011;51055;59.436;24.778;2023-07-30T01:48:49;4.95;;;2.35;;
40907;SDS011;51055;59.436;24.778;2023-07-30T01:51:16;4.57;;;2.25;;
40907;SDS011;51055;59.436;24.778;2023-07-30T01:53:44;5.05;;;2.00;;
40907;SDS011;51055;59.436;24.778;2023-07-30T01:56:11;6.68;;;2.40;;
40907;SDS011;51055;59.436;24.778;2023-07-30T01:58:38;7.10;;;2.30;;
40907;SDS011;51055;59.436;24.778;2023-07-30T02:01:06;5.68;;;2.20;;
40907;SDS011;51055;59.436;24.778;2023-07-30T02:03:33;4.43;;;2.17;;
40907;SDS011;51055;59.436;24.778;2023-07-30T02:06:01;4.97;;;2.13;;
40907;SDS011;51055;59.436;24.778;2023-07-30T02:08:28;8.93;;;2.17;;
40907;SDS011;51055;59.436;24.778;2023-07-30T02:10:56;4.68;;;2.10;;
40907;SDS011;51055;59.436;24.778;2023-07-30T02:13:24;6.20;;;2.22;;
40907;SDS011;51055;59.436;24.778;2023-07-30T02:15:51;4.50;;;2.42;;
40907;SDS011;51055;59.436;24.778;2023-07-30T02:18:18;6.55;;;2.10;;
40907;SDS011;51055;59.436;24.778;2023-07-30T02:20:46;5.18;;;2.15;;
40907;SDS011;51055;59.436;24.778;2023-07-30T02:23:14;6.45;;;2.30;;
40907;SDS011;51055;59.436;24.778;2023-07-30T02:25:42;4.50;;;2.17;;
40907;SDS011;51055;59.436;24.778;2023-07-30T02:28:09;5.20;;;2.60;;
40907;SDS011;51055;59.436;24.778;2023-07-30T02:30:39;4.97;;;2.90;;
40907;SDS011;51055;59.436;24.778;2023-07-30T02:33:07;7.28;;;3.00;;
40907;SDS011;51055;59.436;24.778;2023-07-30T02:35:34;5.45;;;2.40;;
40907;SDS011;51055;59.436;24.778;2023-07-30T02:38:02;5.32;;;2.63;;
40907;SDS011;51055;59.436;24.778;2023-07-30T02:40:29;8.40;;;3.33;;
40907;SDS011;51055;59.436;24.778;2023-07-30T02:42:58;7.20;;;3.00;;
40907;SDS011;51055;59.436;24.778;2023-07-30T02:45:25;6.50;;;2.80;;
40907;SDS011;51055;59.436;24.778;2023-07-30T02:47:53;6.07;;;2.60;;
40907;SDS011;51055;59.436;24.778;2023-07-30T02:50:20;6.90;;;2.72;;
40907;SDS011;51055;59.436;24.778;2023-07-30T02:52:47;4.88;;;2.40;;
40907;SDS011;51055;59.436;24.778;2023-07-30T02:55:15;5.47;;;2.80;;
40907;SDS011;51055;59.436;24.778;2023-07-30T02:57:43;4.95;;;2.45;;
40907;SDS011;51055;59.436;24.778;2023-07-30T03:00:10;5.65;;;2.97;;
40907;SDS011;51055;59.436;24.778;2023-07-30T03:02:39;5.85;;;2.72;;
40907;SDS011;51055;59.436;24.778;2023-07-30T03:05:06;5.60;;;2.60;;
40907;SDS011;51055;59.436;24.778;2023-07-30T03:07:34;5.75;;;2.70;;
40907;SDS011;51055;59.436;24.778;2023-07-30T03:10:02;6.47;;;3.00;;
40907;SDS011;51055;59.436;24.778;2023-07-30T03:12:30;4.82;;;2.58;;
40907;SDS011;51055;59.436;24.778;2023-07-30T03:14:57;5.72;;;2.53;;
40907;SDS011;51055;59.436;24.778;2023-07-30T03:17:25;5.70;;;2.65;;
40907;SDS011;51055;59.436;24.778;2023-07-30T03:19:52;5.10;;;2.70;;
40907;SDS011;51055;59.436;24.778;2023-07-30T03:22:19;5.45;;;2.60;;
40907;SDS011;51055;59.436;24.778;2023-07-30T03:24:46;5.75;;;2.85;;
40907;SDS011;51055;59.436;24.778;2023-07-30T03:27:14;4.47;;;2.60;;
40907;SDS011;51055;59.436;24.778;2023-07-30T03:29:41;5.20;;;2.50;;
40907;SDS011;51055;59.436;24.778;2023-07-30T03:32:08;5.72;;;2.83;;
40907;SDS011;51055;59.436;24.778;2023-07-30T03:34:36;5.60;;;3.03;;
40907;SDS011;51055;59.436;24.778;2023-07-30T03:37:03;6.53;;;2.95;;
40907;SDS011;51055;59.436;24.778;2023-07-30T03:39:30;4.30;;;2.33;;
40907;SDS011;51055;59.436;24.778;2023-07-30T03:41:57;5.45;;;2.60;;
40907;SDS011;51055;59.436;24.778;2023-07-30T03:44:25;4.45;;;2.42;;
40907;SDS011;51055;59.436;24.778;2023-07-30T03:46:52;5.47;;;2.72;;
40907;SDS011;51055;59.436;24.778;2023-07-30T03:49:19;5.10;;;3.20;;
40907;SDS011;51055;59.436;24.778;2023-07-30T03:51:47;5.90;;;2.75;;
40907;SDS011;51055;59.436;24.778;2023-07-30T03:54:15;4.53;;;2.45;;
40907;SDS011;51055;59.436;24.778;2023-07-30T03:56:42;4.88;;;2.70;;
40907;SDS011;51055;59.436;24.778;2023-07-30T03:59:09;6.00;;;2.47;;
40907;SDS011;51055;59.436;24.778;2023-07-30T04:01:37;5.22;;;2.80;;
40907;SDS011;51055;59.436;24.778;2023-07-30T04:04:05;4.93;;;2.67;;
40907;SDS011;51055;59.436;24.778;2023-07-30T04:06:32;5.93;;;2.78;;
40907;SDS011;51055;59.436;24.778;2023-07-30T04:08:59;5.35;;;2.67;;
40907;SDS011;51055;59.436;24.778;2023-07-30T04:11:27;4.50;;;2.70;;
40907;SDS011;51055;59.436;24.778;2023-07-30T04:13:54;5.57;;;2.80;;
40907;SDS011;51055;59.436;24.778;2023-07-30T04:16:21;3.92;;;2.10;;
40907;SDS011;51055;59.436;24.778;2023-07-30T04:18:49;6.72;;;2.78;;
40907;SDS011;51055;59.436;24.778;2023-07-30T04:21:16;4.20;;;2.35;;
40907;SDS011;51055;59.436;24.778;2023-07-30T04:23:43;6.22;;;3.00;;
40907;SDS011;51055;59.436;24.778;2023-07-30T04:26:11;5.03;;;2.50;;
40907;SDS011;51055;59.436;24.778;2023-07-30T04:28:38;4.53;;;2.50;;
40907;SDS011;51055;59.436;24.778;2023-07-30T04:31:06;5.22;;;2.10;;
40907;SDS011;51055;59.436;24.778;2023-07-30T04:33:33;5.03;;;2.53;;
40907;SDS011;51055;59.436;24.778;2023-07-30T04:36:01;5.28;;;2.60;;
40907;SDS011;51055;59.436;24.778;2023-07-30T04:38:29;4.30;;;2.42;;
40907;SDS011;51055;59.436;24.778;2023-07-30T04:40:59;4.72;;;2.72;;
40907;SDS011;51055;59.436;24.778;2023-07-30T04:43:27;5.13;;;2.72;;
40907;SDS011;51055;59.436;24.778;2023-07-30T04:45:54;4.60;;;2.50;;
40907;SDS011;51055;59.436;24.778;2023-07-30T04:48:21;4.90;;;2.47;;
40907;SDS011;51055;59.436;24.778;2023-07-30T04:50:49;4.05;;;2.15;;
40907;SDS011;51055;59.436;24.778;2023-07-30T04:53:16;5.45;;;2.50;;
40907;SDS011;51055;59.436;24.778;2023-07-30T04:55:45;4.80;;;2.40;;
40907;SDS011;51055;59.436;24.778;2023-07-30T04:58:12;4.55;;;2.13;;
40907;SDS011;51055;59.436;24.778;2023-07-30T05:00:40;5.35;;;2.00;;
40907;SDS011;51055;59.436;24.778;2023-07-30T05:03:07;4.30;;;2.40;;
40907;SDS011;51055;59.436;24.778;2023-07-30T05:05:35;5.03;;;2.33;;
40907;SDS011;51055;59.436;24.778;2023-07-30T05:08:02;6.75;;;2.22;;
40907;SDS011;51055;59.436;24.778;2023-07-30T05:10:29;6.07;;;2.42;;
40907;SDS011;51055;59.436;24.778;2023-07-30T05:12:56;3.85;;;2.03;;
40907;SDS011;51055;59.436;24.778;2023-07-30T05:15:24;4.57;;;2.40;;
40907;SDS011;51055;59.436;24.778;2023-07-30T05:17:51;3.83;;;2.15;;
40907;SDS011;51055;59.436;24.778;2023-07-30T05:20:18;4.45;;;2.58;;
40907;SDS011;51055;59.436;24.778;2023-07-30T05:22:45;4.50;;;2.30;;
40907;SDS011;51055;59.436;24.778;2023-07-30T05:25:13;6.60;;;2.10;;
40907;SDS011;51055;59.436;24.778;2023-07-30T05:27:40;4.63;;;2.08;;
40907;SDS011;51055;59.436;24.778;2023-07-30T05:30:08;4.57;;;2.00;;
40907;SDS011;51055;59.436;24.778;2023-07-30T05:32:35;4.53;;;1.95;;
40907;SDS011;51055;59.436;24.778;2023-07-30T05:35:02;4.88;;;2.08;;
40907;SDS011;51055;59.436;24.778;2023-07-30T05:37:30;3.58;;;1.90;;
40907;SDS011;51055;59.436;24.778;2023-07-30T05:39:57;3.35;;;1.90;;
40907;SDS011;51055;59.436;24.778;2023-07-30T05:42:24;4.72;;;1.85;;
40907;SDS011;51055;59.436;24.778;2023-07-30T05:44:52;5.13;;;1.88;;
40907;SDS011;51055;59.436;24.778;2023-07-30T05:47:19;4.25;;;2.00;;
40907;SDS011;51055;59.436;24.778;2023-07-30T05:49:47;2.65;;;1.48;;
40907;SDS011;51055;59.436;24.778;2023-07-30T05:52:15;4.17;;;1.63;;
40907;SDS011;51055;59.436;24.778;2023-07-30T05:54:42;4.45;;;1.73;;
40907;SDS011;51055;59.436;24.778;2023-07-30T05:57:10;3.95;;;1.95;;
40907;SDS011;51055;59.436;24.778;2023-07-30T05:59:37;4.38;;;1.80;;
40907;SDS011;51055;59.436;24.778;2023-07-30T06:02:06;3.67;;;1.73;;
40907;SDS011;51055;59.436;24.778;2023-07-30T06:04:34;3.70;;;1.65;;
40907;SDS011;51055;59.436;24.778;2023-07-30T06:07:04;3.88;;;1.70;;
40907;SDS011;51055;59.436;24.778;2023-07-30T06:09:31;3.45;;;1.70;;
40907;SDS011;51055;59.436;24.778;2023-07-30T06:11:58;3.15;;;1.67;;
40907;SDS011;51055;59.436;24.778;2023-07-30T06:14:26;4.03;;;1.83;;
40907;SDS011;51055;59.436;24.778;2023-07-30T06:16:53;4.05;;;1.80;;
40907;SDS011;51055;59.436;24.778;2023-07-30T06:19:21;4.03;;;1.60;;
40907;SDS011;51055;59.436;24.778;2023-07-30T06:21:48;3.83;;;1.73;;
40907;SDS011;51055;59.436;24.778;2023-07-30T06:24:15;5.28;;;2.30;;
40907;SDS011;51055;59.436;24.778;2023-07-30T06:26:43;3.50;;;1.70;;
40907;SDS011;51055;59.436;24.778;2023-07-30T06:29:10;3.63;;;1.80;;
40907;SDS011;51055;59.436;24.778;2023-07-30T06:31:37;4.15;;;1.70;;
40907;SDS011;51055;59.436;24.778;2023-07-30T06:34:05;3.50;;;1.63;;
40907;SDS011;51055;59.436;24.778;2023-07-30T06:36:33;3.78;;;1.60;;
40907;SDS011;51055;59.436;24.778;2023-07-30T06:39:00;3.63;;;1.83;;
40907;SDS011;51055;59.436;24.778;2023-07-30T06:41:27;3.80;;;1.45;;
40907;SDS011;51055;59.436;24.778;2023-07-30T06:43:55;3.13;;;1.60;;
40907;SDS011;51055;59.436;24.778;2023-07-30T06:46:22;4.05;;;1.83;;
40907;SDS011;51055;59.436;24.778;2023-07-30T06:48:49;4.10;;;1.65;;
40907;SDS011;51055;59.436;24.778;2023-07-30T06:51:20;3.80;;;1.70;;
40907;SDS011;51055;59.436;24.778;2023-07-30T06:53:47;4.00;;;1.67;;
40907;SDS011;51055;59.436;24.778;2023-07-30T06:56:15;3.03;;;1.50;;
40907;SDS011;51055;59.436;24.778;2023-07-30T06:58:42;2.78;;;1.40;;
40907;SDS011;51055;59.436;24.778;2023-07-30T07:01:09;3.10;;;1.58;;
40907;SDS011;51055;59.436;24.778;2023-07-30T07:03:36;5.72;;;1.60;;
40907;SDS011;51055;59.436;24.778;2023-07-30T07:06:04;4.13;;;1.58;;
40907;SDS011;51055;59.436;24.778;2023-07-30T07:08:32;4.20;;;1.50;;
40907;SDS011;51055;59.436;24.778;2023-07-30T07:10:59;2.67;;;1.38;;
40907;SDS011;51055;59.436;24.778;2023-07-30T07:13:27;4.18;;;1.40;;
40907;SDS011;51055;59.436;24.778;2023-07-30T07:15:54;4.57;;;1.60;;
40907;SDS011;51055;59.436;24.778;2023-07-30T07:18:22;2.78;;;1.40;;
40907;SDS011;51055;59.436;24.778;2023-07-30T07:20:49;3.13;;;1.35;;
40907;SDS011;51055;59.436;24.778;2023-07-30T07:23:16;4.25;;;1.55;;
40907;SDS011;51055;59.436;24.778;2023-07-30T07:25:43;4.38;;;1.63;;
40907;SDS011;51055;59.436;24.778;2023-07-30T07:28:11;4.03;;;1.58;;
40907;SDS011;51055;59.436;24.778;2023-07-30T07:30:38;3.47;;;1.60;;
40907;SDS011;51055;59.436;24.778;2023-07-30T07:33:05;3.53;;;1.40;;
40907;SDS011;51055;59.436;24.778;2023-07-30T07:35:33;3.40;;;1.50;;
40907;SDS011;51055;59.436;24.778;2023-07-30T07:38:00;3.55;;;1.45;;
40907;SDS011;51055;59.436;24.778;2023-07-30T07:40:28;3.25;;;1.30;;
40907;SDS011;51055;59.436;24.778;2023-07-30T07:42:55;3.22;;;1.30;;
40907;SDS011;51055;59.436;24.778;2023-07-30T07:45:22;3.40;;;1.55;;
40907;SDS011;51055;59.436;24.778;2023-07-30T07:47:50;2.50;;;1.20;;
40907;SDS011;51055;59.436;24.778;2023-07-30T07:50:17;2.58;;;1.35;;
40907;SDS011;51055;59.436;24.778;2023-07-30T07:52:44;3.75;;;1.55;;
40907;SDS011;51055;59.436;24.778;2023-07-30T07:55:12;3.63;;;1.42;;
40907;SDS011;51055;59.436;24.778;2023-07-30T07:57:39;3.15;;;1.42;;
40907;SDS011;51055;59.436;24.778;2023-07-30T08:00:07;3.00;;;1.60;;
40907;SDS011;51055;59.436;24.778;2023-07-30T08:02:34;6.22;;;1.73;;
40907;SDS011;51055;59.436;24.778;2023-07-30T08:05:01;2.92;;;1.25;;
40907;SDS011;51055;59.436;24.778;2023-07-30T08:07:30;2.47;;;1.40;;
40907;SDS011;51055;59.436;24.778;2023-07-30T08:09:57;3.45;;;1.40;;
40907;SDS011;51055;59.436;24.778;2023-07-30T08:12:25;3.58;;;1.50;;
40907;SDS011;51055;59.436;24.778;2023-07-30T08:14:52;4.13;;;1.45;;
40907;SDS011;51055;59.436;24.778;2023-07-30T08:17:20;3.83;;;1.45;;
40907;SDS011;51055;59.436;24.778;2023-07-30T08:19:48;5.07;;;1.50;;
40907;SDS011;51055;59.436;24.778;2023-07-30T08:22:15;3.88;;;1.40;;
40907;SDS011;51055;59.436;24.778;2023-07-30T08:24:43;4.15;;;1.60;;
40907;SDS011;51055;59.436;24.778;2023-07-30T08:27:10;3.65;;;1.65;;
40907;SDS011;51055;59.436;24.778;2023-07-30T08:29:38;4.05;;;1.70;;
40907;SDS011;51055;59.436;24.778;2023-07-30T08:32:05;2.47;;;1.33;;
40907;SDS011;51055;59.436;24.778;2023-07-30T08:34:33;3.25;;;1.30;;
40907;SDS011;51055;59.436;24.778;2023-07-30T08:37:00;2.78;;;1.30;;
40907;SDS011;51055;59.436;24.778;2023-07-30T08:39:27;3.13;;;1.40;;
40907;SDS011;51055;59.436;24.778;2023-07-30T08:41:55;2.72;;;1.30;;
40907;SDS011;51055;59.436;24.778;2023-07-30T08:44:22;3.08;;;1.25;;
40907;SDS011;51055;59.436;24.778;2023-07-30T08:46:50;2.47;;;1.15;;
40907;SDS011;51055;59.436;24.778;2023-07-30T08:49:22;2.03;;;1.10;;
40907;SDS011;51055;59.436;24.778;2023-07-30T08:51:52;3.30;;;1.30;;
40907;SDS011;51055;59.436;24.778;2023-07-30T08:54:20;1.73;;;1.13;;
40907;SDS011;51055;59.436;24.778;2023-07-30T08:56:49;2.25;;;1.00;;
40907;SDS011;51055;59.436;24.778;2023-07-30T08:59:17;2.85;;;1.15;;
40907;SDS011;51055;59.436;24.778;2023-07-30T09:01:45;2.72;;;1.20;;
40907;SDS011;51055;59.436;24.778;2023-07-30T09:06:40;2.95;;;1.40;;
40907;SDS011;51055;59.436;24.778;2023-07-30T09:09:11;2.22;;;1.10;;
40907;SDS011;51055;59.436;24.778;2023-07-30T09:11:39;2.72;;;1.20;;
40907;SDS011;51055;59.436;24.778;2023-07-30T09:14:06;3.60;;;1.20;;
40907;SDS011;51055;59.436;24.778;2023-07-30T09:16:34;1.48;;;0.90;;
40907;SDS011;51055;59.436;24.778;2023-07-30T09:19:02;2.30;;;0.90;;
40907;SDS011;51055;59.436;24.778;2023-07-30T09:21:31;2.55;;;0.90;;
40907;SDS011;51055;59.436;24.778;2023-07-30T09:24:00;2.83;;;0.90;;
40907;SDS011;51055;59.436;24.778;2023-07-30T09:26:39;1.45;;;0.90;;
40907;SDS011;51055;59.436;24.778;2023-07-30T09:29:08;3.60;;;0.90;;
40907;SDS011;51055;59.436;24.778;2023-07-30T09:31:53;2.17;;;1.00;;
40907;SDS011;51055;59.436;24.778;2023-07-30T09:34:24;2.28;;;1.27;;
40907;SDS011;51055;59.436;24.778;2023-07-30T09:36:52;2.35;;;1.00;;
40907;SDS011;51055;59.436;24.778;2023-07-30T09:39:21;2.17;;;1.08;;
40907;SDS011;51055;59.436;24.778;2023-07-30T09:41:49;2.08;;;0.90;;
40907;SDS011;51055;59.436;24.778;2023-07-30T09:44:18;2.17;;;1.10;;
40907;SDS011;51055;59.436;24.778;2023-07-30T09:46:47;2.83;;;1.10;;
40907;SDS011;51055;59.436;24.778;2023-07-30T09:49:15;2.35;;;1.08;;
40907;SDS011;51055;59.436;24.778;2023-07-30T09:51:43;2.50;;;1.20;;
40907;SDS011;51055;59.436;24.778;2023-07-30T09:54:11;5.00;;;1.23;;
40907;SDS011;51055;59.436;24.778;2023-07-30T09:56:39;1.67;;;1.00;;
40907;SDS011;51055;59.436;24.778;2023-07-30T09:59:07;2.80;;;1.30;;
40907;SDS011;51055;59.436;24.778;2023-07-30T10:01:36;2.70;;;1.10;;
40907;SDS011;51055;59.436;24.778;2023-07-30T10:04:07;2.40;;;1.05;;
40907;SDS011;51055;59.436;24.778;2023-07-30T10:06:46;3.17;;;1.38;;
40907;SDS011;51055;59.436;24.778;2023-07-30T10:09:16;2.90;;;1.27;;
40907;SDS011;51055;59.436;24.778;2023-07-30T10:11:44;2.28;;;1.20;;
40907;SDS011;51055;59.436;24.778;2023-07-30T10:14:12;2.70;;;0.98;;
40907;SDS011;51055;59.436;24.778;2023-07-30T10:16:49;2.80;;;1.17;;
40907;SDS011;51055;59.436;24.778;2023-07-30T10:19:16;2.33;;;1.00;;
40907;SDS011;51055;59.436;24.778;2023-07-30T10:21:46;2.47;;;1.05;;
40907;SDS011;51055;59.436;24.778;2023-07-30T10:24:13;1.75;;;1.10;;
40907;SDS011;51055;59.436;24.778;2023-07-30T10:26:40;1.75;;;1.00;;
40907;SDS011;51055;59.436;24.778;2023-07-30T10:29:18;1.92;;;1.17;;
40907;SDS011;51055;59.436;24.778;2023-07-30T10:31:55;2.17;;;1.00;;
40907;SDS011;51055;59.436;24.778;2023-07-30T10:34:27;2.50;;;1.10;;
40907;SDS011;51055;59.436;24.778;2023-07-30T10:37:09;2.92;;;1.20;;
40907;SDS011;51055;59.436;24.778;2023-07-30T10:39:37;2.13;;;1.20;;
40907;SDS011;51055;59.436;24.778;2023-07-30T10:42:04;3.13;;;1.23;;
40907;SDS011;51055;59.436;24.778;2023-07-30T10:44:34;2.25;;;1.05;;
40907;SDS011;51055;59.436;24.778;2023-07-30T10:47:02;3.70;;;1.20;;
40907;SDS011;51055;59.436;24.778;2023-07-30T10:49:37;2.08;;;1.10;;
40907;SDS011;51055;59.436;24.778;2023-07-30T10:52:07;3.45;;;1.13;;
40907;SDS011;51055;59.436;24.778;2023-07-30T10:54:35;2.65;;;1.25;;
40907;SDS011;51055;59.436;24.778;2023-07-30T10:57:03;3.80;;;1.10;;
40907;SDS011;51055;59.436;24.778;2023-07-30T10:59:37;2.10;;;1.08;;
40907;SDS011;51055;59.436;24.778;2023-07-30T11:02:04;2.13;;;1.10;;
40907;SDS011;51055;59.436;24.778;2023-07-30T11:04:35;4.18;;;1.20;;
40907;SDS011;51055;59.436;24.778;2023-07-30T11:07:03;2.00;;;1.20;;
40907;SDS011;51055;59.436;24.778;2023-07-30T11:09:31;3.85;;;1.27;;
40907;SDS011;51055;59.436;24.778;2023-07-30T11:11:58;3.28;;;1.38;;
40907;SDS011;51055;59.436;24.778;2023-07-30T11:14:26;2.70;;;1.10;;
40907;SDS011;51055;59.436;24.778;2023-07-30T11:16:54;2.35;;;1.20;;
40907;SDS011;51055;59.436;24.778;2023-07-30T11:19:22;2.03;;;1.20;;
40907;SDS011;51055;59.436;24.778;2023-07-30T11:21:50;3.08;;;1.35;;
40907;SDS011;51055;59.436;24.778;2023-07-30T11:24:21;2.15;;;1.10;;
40907;SDS011;51055;59.436;24.778;2023-07-30T11:26:57;3.25;;;1.20;;
40907;SDS011;51055;59.436;24.778;2023-07-30T11:29:26;2.25;;;0.90;;
40907;SDS011;51055;59.436;24.778;2023-07-30T11:31:56;3.13;;;1.00;;
40907;SDS011;51055;59.436;24.778;2023-07-30T11:34:23;2.95;;;1.00;;
40907;SDS011;51055;59.436;24.778;2023-07-30T11:36:52;2.47;;;1.02;;
40907;SDS011;51055;59.436;24.778;2023-07-30T11:39:20;2.92;;;1.10;;
40907;SDS011;51055;59.436;24.778;2023-07-30T11:41:48;1.63;;;0.98;;
40907;SDS011;51055;59.436;24.778;2023-07-30T11:44:35;1.80;;;0.90;;
40907;SDS011;51055;59.436;24.778;2023-07-30T11:47:02;1.38;;;0.82;;
40907;SDS011;51055;59.436;24.778;2023-07-30T11:49:31;1.88;;;0.90;;
40907;SDS011;51055;59.436;24.778;2023-07-30T11:52:04;2.10;;;1.02;;
40907;SDS011;51055;59.436;24.778;2023-07-30T11:54:32;3.78;;;1.10;;
40907;SDS011;51055;59.436;24.778;2023-07-30T11:56:59;2.20;;;1.00;;
40907;SDS011;51055;59.436;24.778;2023-07-30T11:59:27;2.35;;;1.30;;
40907;SDS011;51055;59.436;24.778;2023-07-30T12:01:55;2.10;;;1.20;;
40907;SDS011;51055;59.436;24.778;2023-07-30T12:04:22;2.70;;;1.30;;
40907;SDS011;51055;59.436;24.778;2023-07-30T12:06:52;2.70;;;1.45;;
40907;SDS011;51055;59.436;24.778;2023-07-30T12:09:23;2.75;;;1.40;;
40907;SDS011;51055;59.436;24.778;2023-07-30T12:11:54;2.47;;;1.33;;
40907;SDS011;51055;59.436;24.778;2023-07-30T12:14:22;2.75;;;1.27;;
40907;SDS011;51055;59.436;24.778;2023-07-30T12:16:52;1.80;;;1.20;;
40907;SDS011;51055;59.436;24.778;2023-07-30T12:19:20;3.17;;;1.23;;
40907;SDS011;51055;59.436;24.778;2023-07-30T12:21:47;1.92;;;1.25;;
40907;SDS011;51055;59.436;24.778;2023-07-30T12:24:15;2.88;;;1.30;;
40907;SDS011;51055;59.436;24.778;2023-07-30T12:26:42;2.47;;;1.20;;
40907;SDS011;51055;59.436;24.778;2023-07-30T12:29:09;3.10;;;1.30;;
40907;SDS011;51055;59.436;24.778;2023-07-30T12:31:36;2.65;;;1.35;;
40907;SDS011;51055;59.436;24.778;2023-07-30T12:34:04;2.55;;;1.20;;
40907;SDS011;51055;59.436;24.778;2023-07-30T12:36:32;2.92;;;1.38;;
40907;SDS011;51055;59.436;24.778;2023-07-30T12:38:59;2.42;;;1.20;;
40907;SDS011;51055;59.436;24.778;2023-07-30T12:41:26;3.10;;;1.38;;
40907;SDS011;51055;59.436;24.778;2023-07-30T12:43:54;3.33;;;1.50;;
40907;SDS011;51055;59.436;24.778;2023-07-30T12:46:23;2.58;;;1.20;;
40907;SDS011;51055;59.436;24.778;2023-07-30T12:48:51;4.10;;;1.63;;
40907;SDS011;51055;59.436;24.778;2023-07-30T12:51:18;5.17;;;1.47;;
40907;SDS011;51055;59.436;24.778;2023-07-30T12:53:46;2.92;;;1.38;;
40907;SDS011;51055;59.436;24.778;2023-07-30T12:56:13;3.38;;;1.52;;
40907;SDS011;51055;59.436;24.778;2023-07-30T12:58:41;3.42;;;1.67;;
40907;SDS011;51055;59.436;24.778;2023-07-30T13:01:09;3.70;;;1.58;;
40907;SDS011;51055;59.436;24.778;2023-07-30T13:03:36;3.90;;;1.77;;
40907;SDS011;51055;59.436;24.778;2023-07-30T13:06:04;4.40;;;1.55;;
40907;SDS011;51055;59.436;24.778;2023-07-30T13:08:31;2.95;;;1.38;;
40907;SDS011;51055;59.436;24.778;2023-07-30T13:10:59;2.58;;;1.60;;
40907;SDS011;51055;59.436;24.778;2023-07-30T13:13:26;3.83;;;1.50;;
40907;SDS011;51055;59.436;24.778;2023-07-30T13:15:54;2.80;;;1.50;;
40907;SDS011;51055;59.436;24.778;2023-07-30T13:18:25;3.47;;;1.42;;
40907;SDS011;51055;59.436;24.778;2023-07-30T13:20:52;2.78;;;1.20;;
40907;SDS011;51055;59.436;24.778;2023-07-30T13:23:20;1.85;;;1.10;;
40907;SDS011;51055;59.436;24.778;2023-07-30T13:25:47;2.22;;;1.20;;
40907;SDS011;51055;59.436;24.778;2023-07-30T13:28:14;2.97;;;1.50;;
40907;SDS011;51055;59.436;24.778;2023-07-30T13:30:42;2.38;;;1.20;;
40907;SDS011;51055;59.436;24.778;2023-07-30T13:33:09;2.47;;;1.20;;
40907;SDS011;51055;59.436;24.778;2023-07-30T13:35:36;3.92;;;1.38;;
40907;SDS011;51055;59.436;24.778;2023-07-30T13:38:04;3.47;;;1.50;;
40907;SDS011;51055;59.436;24.778;2023-07-30T13:40:31;4.88;;;1.60;;
40907;SDS011;51055;59.436;24.778;2023-07-30T13:42:58;5.70;;;1.65;;
40907;SDS011;51055;59.436;24.778;2023-07-30T13:45:26;4.43;;;1.60;;
40907;SDS011;51055;59.436;24.778;2023-07-30T13:47:53;2.47;;;1.30;;
40907;SDS011;51055;59.436;24.778;2023-07-30T13:50:21;4.45;;;1.50;;
40907;SDS011;51055;59.436;24.778;2023-07-30T13:52:48;3.17;;;1.50;;
40907;SDS011;51055;59.436;24.778;2023-07-30T13:55:15;4.40;;;1.70;;
40907;SDS011;51055;59.436;24.778;2023-07-30T13:57:43;3.88;;;1.73;;
40907;SDS011;51055;59.436;24.778;2023-07-30T14:00:11;3.60;;;1.42;;
40907;SDS011;51055;59.436;24.778;2023-07-30T14:02:39;3.63;;;1.40;;
40907;SDS011;51055;59.436;24.778;2023-07-30T14:05:07;2.53;;;1.40;;
40907;SDS011;51055;59.436;24.778;2023-07-30T14:07:34;3.67;;;1.50;;
40907;SDS011;51055;59.436;24.778;2023-07-30T14:10:02;3.17;;;1.63;;
40907;SDS011;51055;59.436;24.778;2023-07-30T14:12:30;4.13;;;1.33;;
40907;SDS011;51055;59.436;24.778;2023-07-30T14:14:57;4.63;;;1.90;;
40907;SDS011;51055;59.436;24.778;2023-07-30T14:17:24;3.17;;;1.45;;
40907;SDS011;51055;59.436;24.778;2023-07-30T14:19:51;4.10;;;1.70;;
40907;SDS011;51055;59.436;24.778;2023-07-30T14:22:19;6.35;;;2.20;;
40907;SDS011;51055;59.436;24.778;2023-07-30T14:24:46;5.00;;;2.15;;
40907;SDS011;51055;59.436;24.778;2023-07-30T14:27:14;3.78;;;1.80;;
40907;SDS011;51055;59.436;24.778;2023-07-30T14:29:42;3.95;;;1.85;;
40907;SDS011;51055;59.436;24.778;2023-07-30T14:32:09;3.58;;;1.60;;
40907;SDS011;51055;59.436;24.778;2023-07-30T14:34:36;3.70;;;1.80;;
40907;SDS011;51055;59.436;24.778;2023-07-30T14:37:03;3.15;;;1.80;;
40907;SDS011;51055;59.436;24.778;2023-07-30T14:39:31;3.25;;;1.50;;
40907;SDS011;51055;59.436;24.778;2023-07-30T14:41:58;3.83;;;1.75;;